Time;durP1;ratioP1;P1;durP2;ratioP2;P2;SDS_P1;SDS_P2;PMS_P1;PMS_P2;Temp;Humidity;BMP_temperature;BMP_pressure;BME280_temperature;BME280_humidity;BME280_pressure;Samples;Min_cycle;Max_cycle;Signal;HPM_P1;HPM_P2
2021/12/09 00:01:22;;;;;;;14.03;6.77;;;;;;;3.93;92.76;97428.03;5065830;28;20202;-51
2021/12/09 00:03:50;;;;;;;14.10;5.87;;;;;;;3.96;91.01;97420.03;5065654;28;20519;-51
2021/12/09 00:06:21;;;;;;;12.63;5.37;;;;;;;3.93;91.95;97428.88;5059039;28;20184;-53
2021/12/09 00:08:48;;;;;;;18.13;6.83;;;;;;;3.90;90.17;97430.91;5058975;28;20211;-51
2021/12/09 00:11:14;;;;;;;16.53;6.87;;;;;;;3.89;90.46;97432.69;5058429;28;20227;-54
2021/12/09 00:13:41;;;;;;;11.33;6.07;;;;;;;3.89;90.72;97435.28;5057425;28;20195;-51
2021/12/09 00:16:09;;;;;;;13.63;6.50;;;;;;;3.87;90.56;97449.25;5058802;28;20183;-51
2021/12/09 00:18:36;;;;;;;16.47;7.37;;;;;;;3.87;90.61;97434.59;5065856;28;20194;-54
2021/12/09 00:21:03;;;;;;;15.23;6.27;;;;;;;3.84;91.27;97434.88;5065586;28;20238;-51
2021/12/09 00:23:30;;;;;;;12.73;7.10;;;;;;;3.87;91.05;97436.34;5064424;28;20560;-52
2021/12/09 00:25:57;;;;;;;14.00;6.83;;;;;;;3.84;91.48;97435.66;5058278;28;20202;-54
2021/12/09 00:28:24;;;;;;;12.90;6.70;;;;;;;3.86;91.13;97438.13;5058591;28;20208;-53
2021/12/09 00:30:51;;;;;;;13.97;7.27;;;;;;;3.79;91.14;97448.16;5062139;28;20222;-51
2021/12/09 00:33:19;;;;;;;18.23;6.97;;;;;;;3.79;91.23;97444.78;5058275;28;20194;-52
2021/12/09 00:35:50;;;;;;;15.90;6.77;;;;;;;3.80;91.61;97449.78;5065459;28;20220;-52
2021/12/09 00:38:22;;;;;;;13.80;6.10;;;;;;;3.82;91.95;97452.25;5057577;28;20220;-52
2021/12/09 00:40:51;;;;;;;19.33;6.03;;;;;;;3.80;91.48;97457.53;5056160;28;20214;-54
2021/12/09 00:43:20;;;;;;;14.73;5.83;;;;;;;3.82;91.02;97460.81;5066837;28;20182;-52
2021/12/09 00:45:47;;;;;;;15.97;5.83;;;;;;;3.81;90.91;97455.78;5066732;28;20215;-55
2021/12/09 00:48:14;;;;;;;10.80;5.27;;;;;;;3.78;90.57;97462.03;5064888;28;20613;-52
2021/12/09 00:50:42;;;;;;;13.20;5.43;;;;;;;3.79;91.24;97460.28;5063348;28;20465;-55
2021/12/09 00:53:09;;;;;;;15.00;6.50;;;;;;;3.80;90.86;97465.28;5059524;28;20190;-54
2021/12/09 00:55:36;;;;;;;12.53;5.70;;;;;;;3.76;90.63;97460.53;5062868;28;20191;-52
2021/12/09 00:58:04;;;;;;;17.10;5.57;;;;;;;3.76;88.98;97465.72;5066037;28;20201;-54
2021/12/09 01:00:31;;;;;;;13.27;5.63;;;;;;;3.76;90.04;97466.50;5065296;28;20296;-55
2021/12/09 01:02:58;;;;;;;17.67;6.03;;;;;;;3.73;90.31;97465.97;5061440;28;20194;-56
2021/12/09 01:05:26;;;;;;;12.13;5.70;;;;;;;3.72;90.32;97464.34;5070215;28;20228;-57
2021/12/09 01:07:54;;;;;;;18.83;6.60;;;;;;;3.69;91.19;97471.41;5065923;28;20569;-56
2021/12/09 01:10:21;;;;;;;13.87;6.10;;;;;;;3.70;90.84;97472.25;5057196;28;20296;-57
2021/12/09 01:12:48;;;;;;;12.10;5.60;;;;;;;3.67;90.45;97482.84;5063874;28;20270;-56
2021/12/09 01:15:17;;;;;;;16.03;5.30;;;;;;;3.67;91.05;97483.63;5072773;28;20187;-56
2021/12/09 01:17:44;;;;;;;10.70;5.03;;;;;;;3.68;90.89;97482.69;5064793;28;20575;-56
2021/12/09 01:20:13;;;;;;;16.50;5.33;;;;;;;3.66;90.42;97484.59;5071950;28;20209;-57
2021/12/09 01:22:42;;;;;;;15.47;5.30;;;;;;;3.66;90.05;97478.63;5072496;28;20277;-56
2021/12/09 01:25:14;;;;;;;12.37;5.77;;;;;;;3.71;89.81;97481.59;5072458;28;20187;-57
2021/12/09 01:27:44;;;;;;;12.13;5.57;;;;;;;3.71;90.38;97485.94;5072669;28;20217;-56
2021/12/09 01:30:15;;;;;;;14.17;5.10;;;;;;;3.75;89.59;97482.94;5072053;28;20218;-56
2021/12/09 01:32:49;;;;;;;15.43;4.93;;;;;;;3.74;88.30;97480.50;5072710;28;20660;-56
2021/12/09 01:35:18;;;;;;;15.30;4.87;;;;;;;3.70;89.26;97479.97;5072621;28;20199;-56
2021/12/09 01:37:46;;;;;;;13.60;4.77;;;;;;;3.69;89.36;97481.75;5072437;28;20236;-57
2021/12/09 01:40:16;;;;;;;9.53;5.30;;;;;;;3.68;89.19;97487.84;5071816;28;20211;-56
2021/12/09 01:42:44;;;;;;;12.17;5.07;;;;;;;3.64;88.19;97490.84;5072806;28;20214;-56
2021/12/09 01:45:12;;;;;;;11.00;4.80;;;;;;;3.63;88.36;97497.75;5072475;28;20273;-56
2021/12/09 01:47:39;;;;;;;13.50;5.53;;;;;;;3.61;87.81;97497.06;5072254;28;20212;-56
2021/12/09 01:50:07;;;;;;;12.97;4.73;;;;;;;3.63;89.41;97494.38;5071465;28;20238;-56
2021/12/09 01:52:34;;;;;;;16.63;4.80;;;;;;;3.64;89.96;97498.59;5072134;28;20214;-55
2021/12/09 01:55:00;;;;;;;9.83;4.30;;;;;;;3.63;89.60;97497.75;5072346;28;20197;-56
2021/12/09 01:57:29;;;;;;;13.97;4.77;;;;;;;3.60;90.03;97508.34;5072195;28;20236;-56
2021/12/09 01:59:56;;;;;;;10.67;4.53;;;;;;;3.60;89.36;97504.97;5069986;28;20296;-56
2021/12/09 02:02:22;;;;;;;15.03;4.67;;;;;;;3.55;89.17;97515.69;5072244;28;20186;-55
2021/12/09 02:04:49;;;;;;;15.33;4.93;;;;;;;3.56;89.26;97506.19;5071856;28;20189;-56
2021/12/09 02:07:17;;;;;;;14.03;4.23;;;;;;;3.57;88.09;97502.66;5072067;28;20214;-54
2021/12/09 02:09:44;;;;;;;11.23;4.20;;;;;;;3.51;88.69;97502.25;5071120;28;20269;-56
2021/12/09 02:12:11;;;;;;;12.40;3.97;;;;;;;3.52;89.32;97501.28;5071817;28;20191;-56
2021/12/09 02:14:43;;;;;;;11.17;3.70;;;;;;;3.52;89.49;97492.72;5071825;28;20539;-56
2021/12/09 02:17:11;;;;;;;11.90;3.17;;;;;;;3.58;87.67;97494.75;5071621;28;20192;-56
2021/12/09 02:19:41;;;;;;;14.83;4.17;;;;;;;3.57;88.18;97495.72;5070980;28;20217;-56
2021/12/09 02:22:09;;;;;;;10.67;3.43;;;;;;;3.57;88.41;97495.72;5071818;28;20259;-56
2021/12/09 02:24:36;;;;;;;14.23;4.10;;;;;;;3.61;88.76;97496.28;5071958;28;20191;-56
2021/12/09 02:27:04;;;;;;;9.47;3.10;;;;;;;3.53;89.07;97496.94;5072049;28;20283;-56
2021/12/09 02:29:31;;;;;;;11.23;3.90;;;;;;;3.50;89.39;97490.28;5071824;28;20743;-56
2021/12/09 02:31:59;;;;;;;8.20;3.43;;;;;;;3.51;89.67;97493.66;5071375;28;20225;-56
2021/12/09 02:34:26;;;;;;;10.63;4.33;;;;;;;3.50;89.32;97492.03;5071806;28;20266;-56
2021/12/09 02:36:52;;;;;;;9.80;3.60;;;;;;;3.48;89.90;97493.94;5071084;28;20193;-56
2021/12/09 02:39:21;;;;;;;10.37;3.47;;;;;;;3.49;89.45;97498.16;5072028;28;20187;-55
2021/12/09 02:41:49;;;;;;;11.83;4.40;;;;;;;3.48;89.89;97506.84;5070471;28;20303;-56
2021/12/09 02:44:19;;;;;;;12.00;4.00;;;;;;;3.48;89.83;97505.09;5071510;28;20663;-55
2021/12/09 02:46:49;;;;;;;15.90;3.93;;;;;;;3.51;89.22;97507.41;5064100;28;20273;-55
2021/12/09 02:49:17;;;;;;;11.43;3.10;;;;;;;3.49;88.38;97513.63;5071751;28;20234;-56
2021/12/09 02:51:46;;;;;;;12.17;3.13;;;;;;;3.48;87.39;97512.81;5070875;28;20207;-56
2021/12/09 02:54:15;;;;;;;13.13;3.70;;;;;;;3.49;88.01;97518.78;5071012;28;20195;-56
2021/12/09 02:56:44;;;;;;;8.60;3.13;;;;;;;3.48;88.88;97522.31;5063288;28;20178;-55
2021/12/09 02:59:12;;;;;;;11.97;3.60;;;;;;;3.43;89.08;97524.47;5071514;28;20185;-56
2021/12/09 03:01:46;;;;;;;7.80;2.97;;;;;;;3.41;89.38;97527.19;5070883;28;20738;-55
2021/12/09 03:04:13;;;;;;;16.57;3.40;;;;;;;3.41;90.21;97529.78;5070521;28;20200;-56
2021/12/09 03:06:42;;;;;;;9.43;3.40;;;;;;;3.40;90.41;97534.13;5071351;28;20205;-56
2021/12/09 03:09:13;;;;;;;10.63;4.17;;;;;;;3.37;91.03;97534.38;5071456;28;20297;-56
2021/12/09 03:11:40;;;;;;;13.47;3.40;;;;;;;3.39;90.09;97540.22;5070666;28;20222;-56
2021/12/09 03:14:11;;;;;;;15.70;3.70;;;;;;;3.38;90.53;97536.00;5071539;28;20274;-56
2021/12/09 03:16:39;;;;;;;11.33;3.40;;;;;;;3.41;91.15;97532.38;5071549;28;20269;-55
2021/12/09 03:19:08;;;;;;;10.00;3.50;;;;;;;3.39;90.65;97539.41;5071430;28;20182;-56
2021/12/09 03:21:38;;;;;;;12.83;3.40;;;;;;;3.38;92.30;97540.38;5070564;28;20299;-56
2021/12/09 03:24:08;;;;;;;13.03;3.90;;;;;;;3.35;91.19;97538.03;5070195;28;20187;-56
2021/12/09 03:26:40;;;;;;;8.70;3.33;;;;;;;3.37;91.93;97551.63;5071453;28;20193;-56
2021/12/09 03:29:11;;;;;;;8.23;3.20;;;;;;;3.39;92.02;97552.31;5071479;28;20754;-56
2021/12/09 03:31:39;;;;;;;9.80;3.10;;;;;;;3.39;91.21;97560.84;5063562;28;20297;-56
2021/12/09 03:34:06;;;;;;;12.10;3.53;;;;;;;3.42;91.69;97554.63;5063013;28;20222;-56
2021/12/09 03:36:33;;;;;;;9.57;3.03;;;;;;;3.39;91.96;97565.22;5063879;28;20188;-55
2021/12/09 03:39:04;;;;;;;14.73;3.87;;;;;;;3.43;90.73;97570.91;5059057;28;20227;-56
2021/12/09 03:41:31;;;;;;;10.67;3.17;;;;;;;3.46;89.58;97570.66;5059543;28;20213;-55
2021/12/09 03:43:58;;;;;;;10.80;3.47;;;;;;;3.44;90.17;97565.63;5061159;28;20258;-56
2021/12/09 03:46:26;;;;;;;11.53;3.23;;;;;;;3.42;89.73;97580.44;5056245;28;20215;-56
2021/12/09 03:48:53;;;;;;;11.50;3.90;;;;;;;3.45;89.55;97571.59;5061524;28;20225;-56
2021/12/09 03:51:20;;;;;;;9.40;3.30;;;;;;;3.47;91.04;97575.69;5062217;28;20211;-56
2021/12/09 03:53:47;;;;;;;12.50;3.33;;;;;;;3.46;90.01;97575.81;5069995;28;20289;-57
2021/12/09 03:56:13;;;;;;;9.77;3.10;;;;;;;3.48;89.52;97577.31;5073789;28;20205;-57
2021/12/09 03:58:40;;;;;;;9.23;2.90;;;;;;;3.50;89.42;97566.84;5073708;28;20274;-56
2021/12/09 04:01:07;;;;;;;11.07;2.83;;;;;;;3.51;89.43;97571.91;5072798;28;20713;-53
2021/12/09 04:03:35;;;;;;;9.80;3.40;;;;;;;3.51;88.95;97574.47;5073422;28;20183;-55
2021/12/09 04:06:02;;;;;;;9.90;3.10;;;;;;;3.55;89.53;97569.84;5073575;28;20187;-53
2021/12/09 04:08:29;;;;;;;8.47;3.10;;;;;;;3.53;90.35;97566.59;5073710;28;20281;-54
2021/12/09 04:10:57;;;;;;;10.77;3.17;;;;;;;3.53;89.30;97564.00;5072686;28;20213;-54
2021/12/09 04:13:24;;;;;;;13.43;3.95;;;;;;;3.46;89.42;97558.59;5072495;28;20829;-54
2021/12/09 04:15:51;;;;;;;11.30;3.20;;;;;;;3.47;90.57;97561.97;5073388;28;20265;-54
2021/12/09 04:18:17;;;;;;;8.80;3.10;;;;;;;3.47;90.62;97557.63;5073316;28;20198;-54
2021/12/09 04:20:46;;;;;;;12.30;3.57;;;;;;;3.46;90.69;97565.50;5071531;28;20236;-55
2021/12/09 04:23:14;;;;;;;13.10;2.70;;;;;;;3.47;89.51;97567.94;5073349;28;20221;-55
2021/12/09 04:25:40;;;;;;;7.77;2.90;;;;;;;3.50;89.73;97561.69;5073407;28;20194;-55
2021/12/09 04:28:07;;;;;;;7.37;2.83;;;;;;;3.52;89.03;97576.13;5073068;28;20560;-51
2021/12/09 04:30:34;;;;;;;11.80;3.37;;;;;;;3.55;89.17;97582.75;5072157;28;20226;-54
2021/12/09 04:33:01;;;;;;;13.07;3.53;;;;;;;3.54;89.01;97573.38;5073090;28;20278;-54
2021/12/09 04:35:28;;;;;;;12.90;4.33;;;;;;;3.56;88.98;97581.00;5072998;28;20186;-54
2021/12/09 04:37:56;;;;;;;10.30;3.33;;;;;;;3.56;89.31;97578.44;5073075;28;20615;-55
2021/12/09 04:40:23;;;;;;;11.30;3.37;;;;;;;3.50;88.67;97590.06;5072232;28;20202;-54
2021/12/09 04:42:50;;;;;;;9.63;3.67;;;;;;;3.49;89.15;97591.03;5072930;28;20193;-52
2021/12/09 04:45:17;;;;;;;11.90;4.00;;;;;;;3.48;89.15;97589.41;5072875;28;20276;-52
2021/12/09 04:47:44;;;;;;;10.30;3.87;;;;;;;3.46;87.64;97586.13;5072730;28;20191;-53
2021/12/09 04:50:12;;;;;;;13.53;3.50;;;;;;;3.41;88.71;97594.28;5071817;28;20216;-51
2021/12/09 04:52:39;;;;;;;12.27;4.10;;;;;;;3.39;88.65;97591.81;5072648;28;20183;-51
2021/12/09 04:55:10;;;;;;;12.00;3.60;;;;;;;3.34;90.29;97593.16;5072577;28;20193;-53
2021/12/09 04:57:38;;;;;;;10.10;4.07;;;;;;;3.30;89.71;97591.78;5072697;28;20193;-52
2021/12/09 05:00:09;;;;;;;10.70;4.00;;;;;;;3.31;89.87;97593.41;5070992;28;20225;-54
2021/12/09 05:02:52;;;;;;;10.60;4.00;;;;;;;3.31;90.46;97594.22;5072499;28;20195;-53
2021/12/09 05:05:18;;;;;;;13.23;3.77;;;;;;;3.32;90.73;97595.84;5071281;28;20191;-54
2021/12/09 05:07:46;;;;;;;12.87;3.70;;;;;;;3.31;90.96;97601.16;5072459;28;20268;-54
2021/12/09 05:10:16;;;;;;;11.60;3.67;;;;;;;3.32;90.78;97597.63;5071357;28;20214;-54
2021/12/09 05:12:43;;;;;;;30.80;3.90;;;;;;;3.31;91.05;97603.75;5072281;28;20175;-52
2021/12/09 05:15:10;;;;;;;10.83;4.00;;;;;;;3.31;91.52;97604.53;5072218;28;20215;-51
2021/12/09 05:17:37;;;;;;;10.63;3.43;;;;;;;3.31;91.17;97609.69;5072018;28;20209;-54
2021/12/09 05:20:06;;;;;;;6.50;3.77;;;;;;;3.33;91.04;97607.81;5071178;28;20198;-53
2021/12/09 05:22:33;;;;;;;11.30;4.20;;;;;;;3.30;90.47;97605.50;5071830;28;20210;-51
2021/12/09 05:25:00;;;;;;;12.07;4.83;;;;;;;3.31;90.71;97608.91;5072031;28;20182;-54
2021/12/09 05:27:29;;;;;;;10.37;4.13;;;;;;;3.32;91.14;97611.34;5072014;28;20752;-53
2021/12/09 05:30:06;;;;;;;14.43;4.27;;;;;;;3.32;90.55;97615.69;5070908;28;20268;-56
2021/12/09 05:32:32;;;;;;;10.70;4.30;;;;;;;3.34;90.71;97619.75;5071937;28;20206;-53
2021/12/09 05:34:59;;;;;;;11.47;4.37;;;;;;;3.37;91.50;97634.19;5071796;28;20667;-55
2021/12/09 05:37:28;;;;;;;16.83;4.57;;;;;;;3.36;90.90;97630.75;5071764;28;20266;-55
2021/12/09 05:39:57;;;;;;;13.43;4.30;;;;;;;3.32;90.86;97631.97;5071043;28;20294;-57
2021/12/09 05:42:26;;;;;;;9.73;3.90;;;;;;;3.29;91.13;97634.00;5071921;28;20644;-51
2021/12/09 05:44:54;;;;;;;14.20;4.93;;;;;;;3.28;90.99;97630.59;5072282;28;20265;-55
2021/12/09 05:47:21;;;;;;;15.27;4.67;;;;;;;3.37;90.71;97634.19;5071489;28;20189;-53
2021/12/09 05:49:49;;;;;;;11.13;4.47;;;;;;;3.28;90.71;97640.91;5070642;28;20549;-51
2021/12/09 05:52:17;;;;;;;11.03;4.67;;;;;;;3.28;90.38;97638.31;5071539;28;20214;-51
2021/12/09 05:54:45;;;;;;;15.77;5.10;;;;;;;3.22;91.52;97647.41;5071427;28;20189;-54
2021/12/09 05:57:12;;;;;;;12.80;5.10;;;;;;;3.23;92.06;97649.03;5071317;28;20261;-52
2021/12/09 05:59:41;;;;;;;11.10;4.53;;;;;;;3.23;92.01;97648.22;5070656;28;20210;-52
2021/12/09 06:02:11;;;;;;;14.47;4.70;;;;;;;3.27;92.07;97654.75;5071207;28;20187;-55
2021/12/09 06:04:38;;;;;;;16.57;7.47;;;;;;;3.23;91.24;97653.38;5071375;28;20659;-54
2021/12/09 06:07:05;;;;;;;14.13;6.23;;;;;;;3.25;92.36;97659.22;5071218;28;20179;-52
2021/12/09 06:09:32;;;;;;;19.33;7.97;;;;;;;3.25;91.95;97661.78;5070994;28;20660;-52
2021/12/09 06:11:59;;;;;;;19.07;8.27;;;;;;;3.25;91.67;97654.91;5070855;28;20289;-52
2021/12/09 06:14:26;;;;;;;17.63;9.00;;;;;;;3.29;91.40;97650.28;5071212;28;20275;-55
2021/12/09 06:16:53;;;;;;;19.43;8.20;;;;;;;3.28;91.51;97661.53;5069635;28;20195;-54
2021/12/09 06:19:22;;;;;;;18.23;8.40;;;;;;;3.28;91.38;97656.38;5071137;28;20648;-54
2021/12/09 06:21:49;;;;;;;17.80;8.27;;;;;;;3.31;92.24;97663.88;5070333;28;20313;-53
2021/12/09 06:24:18;;;;;;;18.53;8.17;;;;;;;3.37;91.56;97670.28;5071081;28;20189;-54
2021/12/09 06:26:45;;;;;;;13.77;7.50;;;;;;;3.38;92.29;97670.16;5071022;28;20180;-52
2021/12/09 06:29:11;;;;;;;13.77;7.37;;;;;;;3.39;92.11;97671.78;5070947;28;20214;-51
2021/12/09 06:31:38;;;;;;;13.53;7.70;;;;;;;3.42;91.44;97675.06;5070133;28;20323;-55
2021/12/09 06:34:41;;;;;;;14.50;6.93;;;;;;;3.43;91.13;97685.25;5070871;28;20285;-52
2021/12/09 06:37:08;;;;;;;23.13;7.73;;;;;;;3.42;90.86;97678.47;5070076;28;20223;-51
2021/12/09 06:39:34;;;;;;;16.33;7.20;;;;;;;3.43;91.14;97687.84;5070865;28;20592;-55
2021/12/09 06:42:01;;;;;;;13.87;7.30;;;;;;;3.43;91.08;97680.09;5071347;28;20701;-52
2021/12/09 06:44:28;;;;;;;14.97;7.43;;;;;;;3.46;89.81;97679.00;5071371;28;20188;-54
2021/12/09 06:46:56;;;;;;;14.90;7.00;;;;;;;3.45;90.18;97683.38;5071589;28;20559;-52
2021/12/09 06:49:24;;;;;;;14.73;7.57;;;;;;;3.48;90.35;97674.53;5071351;28;20252;-53
2021/12/09 06:51:52;;;;;;;14.37;7.07;;;;;;;3.44;89.40;97684.31;5070681;28;20673;-52
2021/12/09 06:54:19;;;;;;;55.83;19.60;;;;;;;3.49;90.03;97686.50;5071712;28;20182;-55
2021/12/09 06:56:46;;;;;;;39.17;14.77;;;;;;;3.50;90.42;97683.78;5070139;28;20183;-57
2021/12/09 06:59:13;;;;;;;58.33;19.20;;;;;;;3.49;89.96;97689.91;5071419;28;20232;-55
2021/12/09 07:01:40;;;;;;;17.97;9.10;;;;;;;3.51;89.51;97693.16;5070511;28;20209;-57
2021/12/09 07:04:08;;;;;;;14.63;7.73;;;;;;;3.52;89.18;97686.22;5070529;28;20202;-55
2021/12/09 07:06:35;;;;;;;14.20;7.23;;;;;;;3.50;90.34;97686.38;5070993;28;20237;-56
2021/12/09 07:09:04;;;;;;;16.37;7.87;;;;;;;3.54;89.97;97692.09;5059664;28;20282;-57
2021/12/09 07:11:32;;;;;;;12.97;7.47;;;;;;;3.53;89.69;97687.88;5068805;28;20206;-56
2021/12/09 07:14:01;;;;;;;14.20;7.27;;;;;;;3.56;90.34;97694.56;5071027;28;20196;-56
2021/12/09 07:16:29;;;;;;;13.23;6.33;;;;;;;3.53;89.09;97701.59;5071180;28;20261;-56
2021/12/09 07:18:56;;;;;;;13.80;7.07;;;;;;;3.54;90.10;97690.34;5071216;28;20289;-57
2021/12/09 07:21:23;;;;;;;15.33;6.97;;;;;;;3.59;87.64;97695.09;5070255;28;20203;-57
2021/12/09 07:23:50;;;;;;;11.27;6.17;;;;;;;3.54;89.08;97692.91;5072981;28;20178;-56
2021/12/09 07:26:18;;;;;;;15.27;7.07;;;;;;;3.56;89.04;97694.56;5074368;28;20270;-57
2021/12/09 07:28:45;;;;;;;12.13;7.10;;;;;;;3.50;88.75;97696.69;5074208;28;20270;-54
2021/12/09 07:31:12;;;;;;;11.57;6.33;;;;;;;3.52;88.16;97701.72;5067469;28;20218;-55
2021/12/09 07:33:38;;;;;;;13.57;6.73;;;;;;;3.57;88.65;97702.16;5074075;28;20644;-57
2021/12/09 07:36:05;;;;;;;12.83;6.80;;;;;;;3.51;87.87;97700.91;5074455;28;20278;-54
2021/12/09 07:38:32;;;;;;;13.60;6.57;;;;;;;3.58;87.92;97701.19;5074661;28;20647;-57
2021/12/09 07:40:59;;;;;;;13.93;6.57;;;;;;;3.54;86.76;97699.81;5074011;28;20234;-57
2021/12/09 07:43:27;;;;;;;13.17;6.77;;;;;;;3.57;88.38;97703.94;5068067;28;20617;-54
2021/12/09 07:45:54;;;;;;;17.40;10.27;;;;;;;3.59;88.48;97702.84;5054665;28;20210;-57
2021/12/09 07:48:21;;;;;;;15.40;8.67;;;;;;;3.61;87.81;97705.31;5055592;28;20277;-55
2021/12/09 07:50:48;;;;;;;16.73;8.70;;;;;;;3.61;88.14;97697.56;5067365;28;20299;-54
2021/12/09 07:53:17;;;;;;;17.83;7.00;;;;;;;3.62;87.01;97707.75;5066985;28;20594;-56
2021/12/09 07:55:44;;;;;;;14.27;6.60;;;;;;;3.59;87.77;97713.16;5059520;28;20607;-57
2021/12/09 07:58:11;;;;;;;15.27;6.33;;;;;;;3.62;87.60;97712.91;5060127;28;20193;-57
2021/12/09 08:00:39;;;;;;;15.00;6.40;;;;;;;3.65;87.80;97714.41;5060810;28;20241;-56
2021/12/09 08:03:06;;;;;;;10.73;6.83;;;;;;;3.63;87.25;97711.97;5065415;28;20613;-55
2021/12/09 08:05:37;;;;;;;11.90;5.90;;;;;;;3.68;87.31;97719.31;5061805;28;20183;-56
2021/12/09 08:08:05;;;;;;;12.40;6.00;;;;;;;3.67;87.74;97718.50;5062573;28;20196;-55
2021/12/09 08:10:33;;;;;;;12.43;6.63;;;;;;;3.70;86.64;97720.00;5063016;28;20661;-53
2021/12/09 08:13:00;;;;;;;14.90;7.10;;;;;;;3.68;86.83;97722.72;5061875;28;20438;-54
2021/12/09 08:15:27;;;;;;;12.97;6.27;;;;;;;3.69;87.26;97726.94;5061965;28;20210;-55
2021/12/09 08:18:02;;;;;;;12.10;5.90;;;;;;;3.75;87.61;97730.75;5061552;28;20199;-54
2021/12/09 08:20:30;;;;;;;14.93;5.57;;;;;;;3.79;87.67;97728.72;5063471;28;20199;-52
2021/12/09 08:22:57;;;;;;;11.47;5.40;;;;;;;3.80;86.01;97735.53;5065011;28;20630;-55
2021/12/09 08:25:24;;;;;;;11.73;5.23;;;;;;;3.80;86.75;97733.75;5061337;28;20190;-55
2021/12/09 08:27:51;;;;;;;8.63;5.20;;;;;;;3.83;86.58;97743.81;5063587;28;20280;-52
2021/12/09 08:30:20;;;;;;;10.30;5.27;;;;;;;3.85;85.37;97735.97;5060928;28;20218;-54
2021/12/09 08:32:47;;;;;;;10.00;5.10;;;;;;;3.87;86.09;97743.56;5061677;28;20179;-57
2021/12/09 08:35:16;;;;;;;8.93;5.00;;;;;;;3.86;85.87;97750.50;5062093;28;20270;-55
2021/12/09 08:37:44;;;;;;;15.73;7.63;;;;;;;3.89;84.74;97754.56;5062525;28;20191;-57
2021/12/09 08:40:13;;;;;;;9.37;5.67;;;;;;;3.87;85.26;97753.88;5060423;28;20204;-56
2021/12/09 08:42:40;;;;;;;11.75;6.05;;;;;;;3.80;85.59;97758.75;5061839;28;20522;-56
2021/12/09 08:45:10;;;;;;;11.80;5.50;;;;;;;3.78;85.21;97756.28;5062920;28;20703;-55
2021/12/09 08:47:37;;;;;;;7.80;4.63;;;;;;;3.84;84.57;97765.31;5063851;28;20187;-56
2021/12/09 08:50:06;;;;;;;14.97;9.80;;;;;;;3.78;86.90;97769.19;5072562;28;20221;-58
2021/12/09 08:52:35;;;;;;;9.83;4.50;;;;;;;3.81;84.49;97775.88;5072061;28;20645;-56
2021/12/09 08:55:02;;;;;;;9.10;4.40;;;;;;;3.61;85.05;97777.56;5073495;28;20186;-61
2021/12/09 08:57:31;;;;;;;9.87;4.97;;;;;;;4.21;95.19;97782.00;5072667;28;20190;-55
2021/12/09 08:59:58;;;;;;;7.80;4.53;;;;;;;4.69;97.61;97789.06;5065695;28;20204;-54
2021/12/09 09:02:25;;;;;;;8.93;4.00;;;;;;;4.48;82.29;97794.31;5062079;28;20182;-57
2021/12/09 09:04:52;;;;;;;11.60;6.07;;;;;;;4.11;82.62;97800.88;5062839;28;20187;-57
2021/12/09 09:07:19;;;;;;;24.10;15.43;;;;;;;3.94;84.98;97810.06;5062523;28;20195;-57
2021/12/09 09:09:47;;;;;;;16.50;9.17;;;;;;;3.71;88.00;97809.38;5064692;28;20198;-57
2021/12/09 09:12:14;;;;;;;19.23;10.85;;;;;;;3.62;89.63;97810.97;5070698;28;20426;-58
2021/12/09 09:14:41;;;;;;;16.77;9.70;;;;;;;3.55;90.04;97822.75;5071776;28;20186;-57
2021/12/09 09:17:08;;;;;;;16.27;9.67;;;;;;;3.34;91.89;97830.47;5072786;28;20360;-57
2021/12/09 09:19:35;;;;;;;19.97;10.90;;;;;;;3.33;91.93;97836.59;5071367;28;20191;-57
2021/12/09 09:22:02;;;;;;;18.73;11.07;;;;;;;3.29;92.05;97841.16;5072655;28;20556;-58
2021/12/09 09:24:29;;;;;;;20.37;11.07;;;;;;;3.25;92.55;97842.34;5072782;28;20193;-57
2021/12/09 09:26:57;;;;;;;23.30;11.13;;;;;;;3.22;91.92;97846.00;5067696;28;20189;-57
2021/12/09 09:29:25;;;;;;;19.73;11.33;;;;;;;3.16;92.66;97845.69;5061701;28;20268;-57
2021/12/09 09:31:55;;;;;;;19.53;11.67;;;;;;;3.02;92.61;97837.28;5061284;28;20226;-58
2021/12/09 09:34:22;;;;;;;21.77;11.20;;;;;;;3.10;92.26;97844.41;5064161;28;20608;-57
2021/12/09 09:36:52;;;;;;;17.23;10.60;;;;;;;3.16;91.36;97837.94;5060274;28;20638;-56
2021/12/09 09:39:21;;;;;;;19.07;9.50;;;;;;;3.13;91.81;97836.41;5061347;28;20187;-57
2021/12/09 09:41:58;;;;;;;15.67;8.33;;;;;;;3.05;90.47;97838.78;5058905;28;20199;-56
2021/12/09 09:44:33;;;;;;;12.03;7.13;;;;;;;3.11;89.81;97840.88;5063023;28;20210;-57
2021/12/09 09:47:01;;;;;;;15.83;7.30;;;;;;;3.15;89.86;97844.84;5061094;28;20179;-58
2021/12/09 09:49:30;;;;;;;14.47;7.17;;;;;;;3.14;88.01;97845.78;5059906;28;20267;-58
2021/12/09 09:51:57;;;;;;;13.93;8.30;;;;;;;3.13;89.26;97854.47;5060614;28;20219;-58
2021/12/09 09:54:25;;;;;;;17.20;8.07;;;;;;;3.18;88.86;97848.97;5061453;28;20695;-57
2021/12/09 09:56:52;;;;;;;15.33;8.37;;;;;;;3.24;89.54;97851.03;5062595;28;20197;-57
2021/12/09 09:59:19;;;;;;;13.30;7.17;;;;;;;3.28;88.68;97854.19;5064802;28;20274;-56
2021/12/09 10:01:52;;;;;;;18.67;9.10;;;;;;;3.30;88.89;97844.56;5061850;28;20211;-57
2021/12/09 10:04:31;;;;;;;16.03;8.73;;;;;;;3.35;89.98;97845.81;5066970;28;20214;-58
2021/12/09 10:06:59;;;;;;;19.83;9.30;;;;;;;3.50;87.70;97850.69;5064983;28;20186;-57
2021/12/09 10:09:26;;;;;;;18.50;9.43;;;;;;;3.60;88.85;97846.41;5059585;28;20188;-58
2021/12/09 10:11:55;;;;;;;18.53;7.87;;;;;;;3.51;87.24;97839.41;5060425;28;20694;-58
2021/12/09 10:14:24;;;;;;;14.87;8.03;;;;;;;3.56;86.49;97841.63;5061623;28;20183;-57
2021/12/09 10:17:05;;;;;;;15.77;7.93;;;;;;;3.51;87.01;97835.09;5059648;28;20207;-58
2021/12/09 10:19:34;;;;;;;16.33;7.90;;;;;;;3.64;86.90;97834.09;5059813;28;20188;-57
2021/12/09 10:22:07;;;;;;;17.10;8.03;;;;;;;3.58;85.59;97832.00;5059832;28;20714;-56
2021/12/09 10:24:34;;;;;;;15.90;8.83;;;;;;;3.53;86.46;97824.63;5058753;28;20237;-58
2021/12/09 10:27:01;;;;;;;17.80;8.30;;;;;;;3.46;86.58;97828.66;5050741;28;20195;-57
2021/12/09 10:29:32;;;;;;;15.53;8.03;;;;;;;3.52;86.80;97833.31;5050958;28;20183;-57
2021/12/09 10:32:01;;;;;;;16.50;8.37;;;;;;;3.50;87.03;97830.88;5051230;28;20215;-58
2021/12/09 10:34:36;;;;;;;20.93;7.93;;;;;;;3.53;86.45;97822.88;5051770;28;20544;-58
2021/12/09 10:37:21;;;;;;;12.47;8.07;;;;;;;3.63;87.30;97824.69;5051628;28;20248;-58
2021/12/09 10:39:50;;;;;;;19.80;8.93;;;;;;;3.74;86.62;97816.06;5050826;28;20272;-58
2021/12/09 10:42:22;;;;;;;20.67;11.10;;;;;;;3.81;86.54;97810.25;5051539;28;20540;-58
2021/12/09 10:44:53;;;;;;;17.03;8.93;;;;;;;4.12;87.37;97814.63;5067286;28;20244;-58
2021/12/09 10:47:34;;;;;;;13.43;8.37;;;;;;;4.34;85.48;97821.34;5071173;28;20344;-58
2021/12/09 10:50:11;;;;;;;17.83;8.60;;;;;;;4.39;82.26;97819.19;5064957;28;20214;-58
2021/12/09 10:52:42;;;;;;;21.47;7.87;;;;;;;4.19;83.13;97813.16;5071629;28;20197;-58
2021/12/09 10:55:13;;;;;;;14.30;8.33;;;;;;;4.34;83.86;97816.19;5071477;28;20240;-58
2021/12/09 10:57:41;;;;;;;17.47;8.37;;;;;;;4.29;83.25;97808.81;5060302;28;20203;-58
2021/12/09 11:00:21;;;;;;;15.57;8.97;;;;;;;4.40;84.98;97809.66;5054884;28;20282;-58
2021/12/09 11:03:08;;;;;;;15.77;8.50;;;;;;;4.51;84.02;97794.06;5056674;28;20235;-58
2021/12/09 11:05:38;;;;;;;17.13;9.03;;;;;;;4.50;84.25;97801.94;5073785;28;20195;-58
2021/12/09 11:08:20;;;;;;;14.80;8.27;;;;;;;4.50;83.48;97810.50;5075373;28;20269;-58
2021/12/09 11:10:49;;;;;;;14.83;9.00;;;;;;;4.46;84.22;97796.22;5066732;28;20693;-54
2021/12/09 11:13:18;;;;;;;16.20;8.57;;;;;;;4.44;85.60;97798.13;5075143;28;20270;-53
2021/12/09 11:15:52;;;;;;;19.57;10.07;;;;;;;4.41;85.25;97798.38;5075385;28;20181;-55
2021/12/09 11:18:35;;;;;;;17.20;8.50;;;;;;;4.46;84.64;97796.22;5075180;28;20194;-52
2021/12/09 11:21:06;;;;;;;15.13;7.83;;;;;;;4.51;85.45;97793.25;5074026;28;20207;-54
2021/12/09 11:23:37;;;;;;;15.23;8.53;;;;;;;4.58;84.59;97791.78;5075127;28;20203;-56
2021/12/09 11:26:49;;;;;;;16.00;7.83;;;;;;;4.97;85.02;97793.56;5075009;28;20190;-52
2021/12/09 11:29:18;;;;;;;13.47;7.03;;;;;;;5.20;82.03;97791.53;5012866;28;20199;-55
2021/12/09 11:31:54;;;;;;;12.10;6.17;;;;;;;5.21;79.90;97787.97;5067043;28;20299;-55
2021/12/09 11:34:25;;;;;;;11.77;5.43;;;;;;;5.14;79.13;97784.31;5074983;28;20189;-53
2021/12/09 11:36:59;;;;;;;11.93;5.63;;;;;;;5.14;79.37;97779.97;5074919;28;20210;-54
2021/12/09 11:39:32;;;;;;;8.77;5.23;;;;;;;5.18;79.89;97783.09;5074761;28;20194;-56
2021/12/09 11:42:20;;;;;;;14.97;5.60;;;;;;;5.08;80.10;97780.50;5074362;28;20202;-56